Juan J. Sister — EAJB — position and weather

sailwx.info

Track history (hours):
 
Tides and Currents Weather Stations Pressure Air Temp Water Temp Dewpoint Dewpoint Depression Visibility Wind Speed Wind Dir Waves Ship Positions

Juan J. Sister

Last reported at 2018-Jan-18 22:15 UTC. Time now 2018-Jan-19 00:10 UTC.
Position N 41°09' E 002°25'.

Length 151 m; draft 5.2 m.

Type: Cargo ship. MMSI: 224647000.

Date/timePositionNaut miles runAvg speedWind from/ knotsBaromVisibWave heightAir tempDewpointWater temp
2018-Jan-18 22:15N 41°09' E 002°25'416.0
2018-Jan-18 22:00N 41°12' E 002°22'816.2
2018-Jan-18 21:30N 41°18' E 002°15'5 9.0
2018-Jan-18 20:56N 41°22' E 002°11'0 0.0
2018-Jan-18 19:23N 41°22' E 002°11'0 0.1
2018-Jan-18 18:49N 41°22' E 002°11'2 5.1
2018-Jan-18 18:30N 41°21' E 002°12'612.6
2018-Jan-18 18:00N 41°15' E 002°12'917.9
2018-Jan-18 17:30N 41°06' E 002°10'918.0
2018-Jan-18 17:00N 40°57' E 002°08'11417.9
2018-Jan-18 10:37N 39°05' E 001°42'218.2
2018-Jan-18 10:29N 39°02' E 001°41'917.9
2018-Jan-18 10:00N 38°56' E 001°34'5 8.5
2018-Jan-18 09:23N 38°54' E 001°27'0 0.0
2018-Jan-18 08:59N 38°54' E 001°27'0 0.0
2018-Jan-18 08:29N 38°54' E 001°27'0 0.0
2018-Jan-18 08:00N 38°54' E 001°27'0 0.0
2018-Jan-18 07:30N 38°54' E 001°27'0 0.1
2018-Jan-18 07:00N 38°54' E 001°27'4 7.1
2018-Jan-18 06:30N 38°55' E 001°32'816.8
2018-Jan-18 06:01N 39°00' E 001°39'  
2018-Jan-11 22:28N 41°13' E 002°26'817.4
2018-Jan-11 22:01N 41°18' E 002°17'6 2.8
2018-Jan-11 19:47N 41°22' E 002°11'2 7.7
2018-Jan-11 19:31N 41°21' E 002°13'916.7
2018-Jan-11 19:00N 41°12' E 002°10'917.9
2018-Jan-11 18:30N 41°04' E 002°07'1018.8
2018-Jan-11 17:59N 40°54' E 002°03'9716.0
2018-Jan-11 11:53N 39°20' E 001°34'614.1
2018-Jan-11 11:28N 39°15' E 001°38'714.6
2018-Jan-11 11:00N 39°08' E 001°42'816.2
2018-Jan-11 10:29N 39°00' E 001°39'817.0
2018-Jan-11 10:00N 38°55' E 001°31'3 6.6
2018-Jan-11 09:31N 38°54' E 001°27'0 0.0
2018-Jan-11 09:00N 38°54' E 001°27'0 0.0
2018-Jan-11 08:24N 38°54' E 001°27'0 0.0
2018-Jan-11 08:00N 38°54' E 001°27'0 0.0
2018-Jan-11 07:30N 38°54' E 001°27'0 0.0
2018-Jan-11 06:56N 38°54' E 001°27'1 1.2
2018-Jan-11 06:29N 38°54' E 001°27'713.7
2018-Jan-11 06:00N 38°57' E 001°35'817.2
2018-Jan-11 05:30N 39°03' E 001°41'112 7.4
2018-Jan-10 14:24N 40°35' E 003°05'917.5
2018-Jan-10 13:54N 40°29' E 003°13'817.2
2018-Jan-10 13:24N 40°22' E 003°20'76 3.9
2018-Jan-09 17:57N 41°19' E 002°15'5916.3
2018-Jan-09 14:22N 40°35' E 003°06'1716.8
2018-Jan-09 13:21N 40°23' E 003°21'  
Track history (hours):
 
Tides and Currents Weather Stations Pressure Air Temp Water Temp Dewpoint Dewpoint Depression Visibility Wind Speed Wind Dir Waves Ship Positions

Juan J. Sister

Last reported at 2018-Jan-18 22:15 UTC. Time now 2018-Jan-19 00:10 UTC.
Position N 41°09' E 002°25'.

Length 151 m; draft 5.2 m.

Type: Cargo ship. MMSI: 224647000.

Date/timePositionNaut miles runAvg speedWind from/ knotsBaromVisibWave heightAir tempDewpointWater temp
2018-Jan-18 22:15N 41°09' E 002°25'416.0
2018-Jan-18 22:00N 41°12' E 002°22'816.2
2018-Jan-18 21:30N 41°18' E 002°15'5 9.0
2018-Jan-18 20:56N 41°22' E 002°11'0 0.0
2018-Jan-18 19:23N 41°22' E 002°11'0 0.1
2018-Jan-18 18:49N 41°22' E 002°11'2 5.1
2018-Jan-18 18:30N 41°21' E 002°12'612.6
2018-Jan-18 18:00N 41°15' E 002°12'917.9
2018-Jan-18 17:30N 41°06' E 002°10'918.0
2018-Jan-18 17:00N 40°57' E 002°08'11417.9
2018-Jan-18 10:37N 39°05' E 001°42'218.2
2018-Jan-18 10:29N 39°02' E 001°41'917.9
2018-Jan-18 10:00N 38°56' E 001°34'5 8.5
2018-Jan-18 09:23N 38°54' E 001°27'0 0.0
2018-Jan-18 08:59N 38°54' E 001°27'0 0.0
2018-Jan-18 08:29N 38°54' E 001°27'0 0.0
2018-Jan-18 08:00N 38°54' E 001°27'0 0.0
2018-Jan-18 07:30N 38°54' E 001°27'0 0.1
2018-Jan-18 07:00N 38°54' E 001°27'4 7.1
2018-Jan-18 06:30N 38°55' E 001°32'816.8
2018-Jan-18 06:01N 39°00' E 001°39'  
2018-Jan-11 22:28N 41°13' E 002°26'817.4
2018-Jan-11 22:01N 41°18' E 002°17'6 2.8
2018-Jan-11 19:47N 41°22' E 002°11'2 7.7
2018-Jan-11 19:31N 41°21' E 002°13'916.7
2018-Jan-11 19:00N 41°12' E 002°10'917.9
2018-Jan-11 18:30N 41°04' E 002°07'1018.8
2018-Jan-11 17:59N 40°54' E 002°03'9716.0
2018-Jan-11 11:53N 39°20' E 001°34'614.1
2018-Jan-11 11:28N 39°15' E 001°38'714.6
2018-Jan-11 11:00N 39°08' E 001°42'816.2
2018-Jan-11 10:29N 39°00' E 001°39'817.0
2018-Jan-11 10:00N 38°55' E 001°31'3 6.6
2018-Jan-11 09:31N 38°54' E 001°27'0 0.0
2018-Jan-11 09:00N 38°54' E 001°27'0 0.0
2018-Jan-11 08:24N 38°54' E 001°27'0 0.0
2018-Jan-11 08:00N 38°54' E 001°27'0 0.0
2018-Jan-11 07:30N 38°54' E 001°27'0 0.0
2018-Jan-11 06:56N 38°54' E 001°27'1 1.2
2018-Jan-11 06:29N 38°54' E 001°27'713.7
2018-Jan-11 06:00N 38°57' E 001°35'817.2
2018-Jan-11 05:30N 39°03' E 001°41'112 7.4
2018-Jan-10 14:24N 40°35' E 003°05'917.5
2018-Jan-10 13:54N 40°29' E 003°13'817.2
2018-Jan-10 13:24N 40°22' E 003°20'76 3.9
2018-Jan-09 17:57N 41°19' E 002°15'5916.3
2018-Jan-09 14:22N 40°35' E 003°06'1716.8
2018-Jan-09 13:21N 40°23' E 003°21'  

Dump ship's entire track history